createdAt,value
2018-06-27T00:01:59.189Z,16.29
2018-06-27T00:04:27.527Z,16.17
2018-06-27T00:06:55.843Z,16.17
2018-06-27T00:09:24.158Z,16.15
2018-06-27T00:11:51.892Z,16.03
2018-06-27T00:14:20.801Z,16.00
2018-06-27T00:16:49.117Z,16.10
2018-06-27T00:19:17.438Z,16.17
2018-06-27T00:21:45.759Z,16.27
2018-06-27T00:24:14.092Z,16.28
2018-06-27T00:26:42.401Z,16.29
2018-06-27T00:29:10.717Z,16.05
2018-06-27T00:31:38.480Z,15.78
2018-06-27T00:34:07.382Z,15.66
2018-06-27T00:36:35.714Z,15.57
2018-06-27T00:39:04.028Z,15.55
2018-06-27T00:41:31.773Z,15.49
2018-06-27T00:44:00.717Z,15.51
2018-06-27T00:46:29.036Z,15.65
2018-06-27T00:48:57.353Z,15.78
2018-06-27T00:51:25.671Z,15.86
2018-06-27T00:53:53.985Z,15.81
2018-06-27T00:56:22.304Z,15.64
2018-06-27T00:58:50.153Z,15.49
2018-06-27T01:01:19.194Z,15.50
2018-06-27T01:03:47.522Z,15.61
2018-06-27T01:06:15.270Z,15.70
2018-06-27T01:08:44.168Z,15.80
2018-06-27T01:11:11.917Z,15.87
2018-06-27T01:13:40.228Z,15.88
2018-06-27T01:16:09.129Z,15.89
2018-06-27T01:18:37.449Z,15.88
2018-06-27T01:21:05.196Z,15.85
2018-06-27T01:23:33.522Z,15.80
2018-06-27T01:26:02.422Z,15.75
2018-06-27T01:28:30.740Z,15.58
2018-06-27T01:30:59.633Z,15.30
2018-06-27T01:33:27.960Z,15.31
2018-06-27T01:35:55.706Z,15.40
2018-06-27T01:38:24.616Z,15.42
2018-06-27T01:40:52.933Z,15.43
2018-06-27T01:43:21.258Z,15.47
2018-06-27T01:45:49.889Z,15.50
2018-06-27T01:48:18.220Z,15.42
2018-06-27T01:50:45.961Z,15.38
2018-06-27T01:53:14.282Z,15.40
2018-06-27T01:55:43.177Z,15.46
2018-06-27T01:58:10.927Z,15.49
2018-06-27T02:00:39.265Z,15.49
2018-06-27T02:03:08.459Z,15.49
2018-06-27T02:05:35.976Z,15.43
2018-06-27T02:08:04.887Z,15.37
2018-06-27T02:10:33.240Z,15.38
2018-06-27T02:13:01.546Z,15.38
2018-06-27T02:15:29.864Z,15.36
2018-06-27T02:17:58.176Z,15.19
2018-06-27T02:20:26.496Z,14.94
2018-06-27T02:22:55.044Z,14.87
2018-06-27T02:25:23.137Z,14.86
2018-06-27T02:27:51.457Z,14.85
2018-06-27T02:30:19.791Z,14.83
2018-06-27T02:32:47.535Z,14.83
2018-06-27T02:35:16.442Z,14.78
2018-06-27T02:37:44.767Z,14.68
2018-06-27T02:40:12.505Z,14.65
2018-06-27T02:42:41.400Z,14.68
2018-06-27T02:45:09.147Z,14.69
2018-06-27T02:47:37.473Z,14.58
2018-06-27T02:50:06.151Z,14.54
2018-06-27T02:52:34.482Z,14.62
2018-06-27T02:55:03.437Z,14.78
2018-06-27T02:57:31.116Z,14.93
2018-06-27T03:00:00.393Z,15.10
2018-06-27T03:02:28.166Z,15.18
2018-06-27T03:04:57.079Z,15.26
2018-06-27T03:07:25.407Z,15.38
2018-06-27T03:09:55.871Z,15.36
2018-06-27T03:12:22.059Z,15.44
2018-06-27T03:14:49.801Z,15.42
2018-06-27T03:17:18.708Z,15.46
2018-06-27T03:19:47.778Z,15.49
2018-06-27T03:22:16.093Z,15.52
2018-06-27T03:24:44.418Z,15.56
2018-06-27T03:27:12.730Z,15.67
2018-06-27T03:29:41.056Z,15.76
2018-06-27T03:32:08.804Z,15.80
2018-06-27T03:34:37.708Z,15.86
2018-06-27T03:37:05.450Z,15.91
2018-06-27T03:39:34.357Z,15.91
2018-06-27T03:42:02.679Z,15.85
2018-06-27T03:44:30.998Z,15.79
2018-06-27T03:46:59.325Z,15.67
2018-06-27T03:49:27.637Z,15.69
2018-06-27T03:51:55.950Z,15.91
2018-06-27T03:54:24.800Z,16.13
2018-06-27T03:56:53.126Z,16.22
2018-06-27T03:59:21.448Z,16.29
2018-06-27T04:01:49.184Z,16.40
2018-06-27T04:04:17.505Z,16.57
2018-06-27T04:06:46.461Z,16.72
2018-06-27T04:09:14.215Z,16.81
2018-06-27T04:11:43.431Z,16.84
2018-06-27T04:14:11.754Z,16.84
2018-06-27T04:16:40.084Z,16.83
2018-06-27T04:19:08.404Z,16.84
2018-06-27T04:21:36.719Z,16.86
2018-06-27T04:24:04.462Z,16.88
2018-06-27T04:26:33.364Z,16.87
2018-06-27T04:29:01.113Z,16.85
2018-06-27T04:31:30.028Z,16.85
2018-06-27T04:33:57.800Z,16.84
2018-06-27T04:36:26.121Z,16.85
2018-06-27T04:38:55.028Z,16.85
2018-06-27T04:41:22.902Z,16.88
2018-06-27T04:43:51.794Z,16.93
2018-06-27T04:46:20.118Z,16.96
2018-06-27T04:48:48.516Z,17.01
2018-06-27T04:51:17.419Z,17.04
2018-06-27T04:53:45.183Z,17.06
2018-06-27T04:56:14.083Z,17.10
2018-06-27T04:58:41.825Z,17.18
2018-06-27T05:03:38.473Z,17.28
2018-06-27T05:06:06.796Z,17.32
2018-06-27T05:08:35.764Z,17.38
2018-06-27T05:11:04.091Z,17.46
2018-06-27T05:13:31.838Z,17.58
2018-06-27T05:16:00.779Z,17.71
2018-06-27T05:18:28.484Z,17.85
2018-06-27T05:20:57.397Z,17.98
2018-06-27T05:23:25.144Z,18.11
2018-06-27T05:25:54.046Z,18.24
2018-06-27T05:28:22.384Z,18.33
2018-06-27T05:30:50.709Z,18.45
2018-06-27T05:33:19.030Z,18.56
2018-06-27T05:35:47.124Z,18.66
2018-06-27T05:38:16.040Z,18.76
2018-06-27T05:40:44.358Z,18.85
2018-06-27T05:43:12.119Z,18.93
2018-06-27T05:45:40.456Z,18.98
2018-06-27T05:48:08.782Z,19.02
2018-06-27T05:50:37.678Z,19.11
2018-06-27T05:53:06.004Z,19.18
2018-06-27T05:55:34.314Z,19.25
2018-06-27T05:58:02.640Z,19.33
2018-06-27T06:00:30.366Z,19.48
2018-06-27T06:02:59.268Z,19.63
2018-06-27T06:05:27.587Z,19.71
2018-06-27T06:07:55.917Z,19.81
2018-06-27T06:10:23.707Z,19.85
2018-06-27T06:12:52.621Z,19.85
2018-06-27T06:15:20.365Z,19.84
2018-06-27T06:17:49.259Z,19.85
2018-06-27T06:20:17.026Z,19.88
2018-06-27T06:22:45.919Z,19.91
2018-06-27T06:25:13.665Z,19.96
2018-06-27T06:27:42.564Z,19.93
2018-06-27T06:30:10.877Z,19.87
2018-06-27T06:32:39.998Z,19.83
2018-06-27T06:35:09.640Z,19.79
2018-06-27T06:37:38.625Z,19.80
2018-06-27T06:40:06.942Z,19.82
2018-06-27T06:42:35.265Z,19.88
2018-06-27T06:45:03.010Z,19.93
2018-06-27T06:47:31.931Z,20.00
2018-06-27T06:50:00.290Z,20.06
2018-06-27T06:52:28.869Z,20.13
2018-06-27T06:54:57.636Z,20.20
2018-06-27T06:57:26.519Z,20.24
2018-06-27T06:59:54.262Z,20.30
2018-06-27T07:02:22.591Z,20.36
2018-06-27T07:04:51.782Z,20.40
2018-06-27T07:07:20.090Z,20.43
2018-06-27T07:09:48.662Z,20.46
2018-06-27T07:12:17.028Z,20.49
2018-06-27T07:14:45.355Z,20.45
2018-06-27T07:17:13.678Z,20.48
2018-06-27T07:19:41.433Z,20.53
2018-06-27T07:22:10.329Z,20.54
2018-06-27T07:24:38.655Z,20.57
2018-06-27T07:27:06.397Z,20.62
2018-06-27T07:29:34.722Z,20.64
2018-06-27T07:32:03.650Z,20.66
2018-06-27T07:34:31.976Z,20.69
2018-06-27T07:37:00.295Z,20.72
2018-06-27T07:39:28.066Z,20.73
2018-06-27T07:41:56.957Z,20.74
2018-06-27T07:44:25.327Z,20.77
2018-06-27T07:46:53.025Z,20.81
2018-06-27T07:49:21.338Z,20.86
2018-06-27T07:51:49.664Z,20.89
2018-06-27T07:54:18.565Z,20.92
2018-06-27T07:56:46.891Z,20.95
2018-06-27T07:59:15.214Z,20.97
2018-06-27T08:01:43.548Z,21.00
2018-06-27T08:04:11.873Z,21.03
2018-06-27T08:06:39.621Z,21.04
2018-06-27T08:09:08.525Z,21.08
2018-06-27T08:11:36.901Z,21.12
2018-06-27T08:14:05.282Z,21.18
2018-06-27T08:16:33.315Z,21.24
2018-06-27T08:19:01.361Z,21.30
2018-06-27T08:21:29.708Z,21.32
2018-06-27T08:23:58.611Z,21.32
2018-06-27T08:26:27.095Z,21.36
2018-06-27T08:28:55.253Z,21.39
2018-06-27T08:31:23.575Z,21.40
2018-06-27T08:33:51.898Z,21.39
2018-06-27T08:36:20.231Z,21.40
2018-06-27T08:38:48.558Z,21.43
2018-06-27T08:41:16.879Z,21.43
2018-06-27T08:43:45.365Z,21.46
2018-06-27T08:46:13.065Z,21.47
2018-06-27T08:48:41.960Z,21.49
2018-06-27T08:51:10.281Z,21.50
2018-06-27T08:53:38.614Z,21.52
2018-06-27T08:56:06.932Z,21.55
2018-06-27T08:58:35.260Z,21.61
2018-06-27T09:01:03.590Z,21.65
2018-06-27T09:03:31.911Z,21.68
2018-06-27T09:06:00.245Z,21.67
2018-06-27T09:08:28.731Z,21.66
2018-06-27T09:10:58.080Z,21.68
2018-06-27T09:13:25.638Z,21.73
2018-06-27T09:15:54.076Z,21.76
2018-06-27T09:18:22.348Z,21.77
2018-06-27T09:20:50.078Z,21.82
2018-06-27T09:23:18.993Z,21.88
2018-06-27T09:25:47.316Z,21.95
2018-06-27T09:28:15.672Z,21.98
2018-06-27T09:30:44.038Z,22.04
2018-06-27T09:33:12.357Z,22.07
2018-06-27T09:35:40.677Z,22.10
2018-06-27T09:38:08.429Z,22.15
2018-06-27T09:40:38.054Z,22.18
2018-06-27T09:43:06.485Z,22.21
2018-06-27T09:45:34.742Z,22.22
2018-06-27T09:48:03.113Z,22.26
2018-06-27T09:50:31.404Z,22.28
2018-06-27T09:52:59.713Z,22.31
2018-06-27T09:55:28.044Z,22.35
2018-06-27T09:57:55.803Z,22.36
2018-06-27T10:00:24.703Z,22.38
2018-06-27T10:02:52.452Z,22.43
2018-06-27T10:05:20.829Z,22.45
2018-06-27T10:07:49.721Z,22.49
2018-06-27T10:10:18.046Z,22.51
2018-06-27T10:12:46.351Z,22.57
2018-06-27T10:15:14.113Z,22.59
2018-06-27T10:17:42.489Z,22.61
2018-06-27T10:20:12.438Z,22.64
2018-06-27T10:22:40.772Z,22.68
2018-06-27T10:25:08.582Z,22.72
2018-06-27T10:27:37.482Z,22.74
2018-06-27T10:30:06.112Z,22.76
2018-06-27T10:32:34.151Z,22.78
2018-06-27T10:35:02.594Z,22.81
2018-06-27T10:37:30.919Z,22.86
2018-06-27T10:39:59.761Z,22.89
2018-06-27T10:42:28.101Z,22.90
2018-06-27T10:44:56.418Z,22.95
2018-06-27T10:47:24.736Z,22.99
2018-06-27T10:49:53.650Z,23.00
2018-06-27T10:52:21.967Z,23.04
2018-06-27T10:54:50.411Z,23.05
2018-06-27T10:57:18.732Z,23.05
2018-06-27T10:59:47.069Z,23.07
2018-06-27T11:02:17.927Z,23.08
2018-06-27T11:04:46.383Z,23.12
2018-06-27T11:07:16.350Z,23.16
2018-06-27T11:09:46.660Z,23.21
2018-06-27T11:12:14.811Z,23.26
2018-06-27T11:14:43.085Z,23.33
2018-06-27T11:17:11.656Z,23.39
2018-06-27T11:19:40.063Z,23.43
2018-06-27T11:22:08.183Z,23.52
2018-06-27T11:24:36.522Z,23.60
2018-06-27T11:27:05.066Z,23.67
2018-06-27T11:29:33.215Z,23.72
2018-06-27T11:32:01.924Z,23.79
2018-06-27T11:34:29.679Z,23.86
2018-06-27T11:36:58.636Z,23.94
2018-06-27T11:39:26.981Z,24.02
2018-06-27T11:41:55.298Z,24.09
2018-06-27T11:44:23.435Z,24.21
2018-06-27T11:46:51.720Z,24.34
2018-06-27T11:49:20.617Z,24.41
2018-06-27T11:51:48.959Z,24.48
2018-06-27T11:54:17.275Z,24.57
2018-06-27T11:56:45.031Z,24.70
2018-06-27T11:59:13.926Z,24.83
2018-06-27T12:01:42.253Z,24.94
2018-06-27T12:04:10.003Z,25.02
2018-06-27T12:06:38.911Z,25.11
2018-06-27T12:09:07.238Z,25.18
2018-06-27T12:11:35.717Z,25.32
2018-06-27T12:14:03.623Z,25.38
2018-06-27T12:16:33.295Z,25.48
2018-06-27T12:19:00.961Z,25.58
2018-06-27T12:21:29.280Z,25.67
2018-06-27T12:23:57.692Z,25.72
2018-06-27T12:26:26.097Z,25.78
2018-06-27T12:28:54.381Z,25.84
2018-06-27T12:31:22.723Z,25.93
2018-06-27T12:33:51.046Z,26.08
2018-06-27T12:36:19.587Z,26.21
2018-06-27T12:38:47.879Z,26.34
2018-06-27T12:41:16.235Z,26.47
2018-06-27T12:43:43.986Z,26.64
2018-06-27T12:46:12.924Z,26.80
2018-06-27T12:48:41.291Z,26.94
2018-06-27T12:51:09.622Z,26.96
2018-06-27T12:53:37.986Z,27.01
2018-06-27T12:56:06.421Z,27.11
2018-06-27T12:58:34.195Z,27.27
2018-06-27T13:01:03.096Z,27.42
2018-06-27T13:03:31.440Z,27.54
2018-06-27T13:05:59.888Z,27.61
2018-06-27T13:08:28.431Z,27.69
2018-06-27T13:10:56.550Z,27.90
2018-06-27T13:13:24.867Z,28.15
2018-06-27T13:15:53.305Z,28.32
2018-06-27T13:18:21.533Z,28.43
2018-06-27T13:20:50.276Z,28.58
2018-06-27T13:23:19.237Z,28.74
2018-06-27T13:25:46.984Z,28.93
2018-06-27T13:28:16.722Z,29.16
2018-06-27T13:30:46.127Z,29.24
2018-06-27T13:33:13.671Z,29.39
2018-06-27T13:35:41.431Z,29.47
2018-06-27T13:38:10.376Z,29.54
2018-06-27T13:40:38.939Z,29.62
2018-06-27T13:43:07.157Z,29.71
2018-06-27T13:45:35.598Z,29.76
2018-06-27T13:48:03.838Z,29.76
2018-06-27T13:50:31.667Z,29.69
2018-06-27T13:52:59.988Z,29.63
2018-06-27T13:55:28.890Z,29.64
2018-06-27T13:57:58.023Z,29.61
2018-06-27T14:00:25.013Z,29.62
2018-06-27T14:02:54.860Z,29.63
2018-06-27T14:05:23.968Z,29.43
2018-06-27T14:07:52.310Z,29.40
2018-06-27T14:10:20.880Z,29.49
2018-06-27T14:12:53.003Z,29.57
2018-06-27T14:15:18.199Z,29.47
2018-06-27T14:17:47.083Z,29.43
2018-06-27T14:20:15.417Z,29.59
2018-06-27T14:22:43.741Z,29.74
2018-06-27T14:25:12.150Z,29.91
2018-06-27T14:27:40.587Z,29.93
2018-06-27T14:30:08.375Z,30.06
2018-06-27T14:32:40.131Z,30.11
2018-06-27T14:35:08.464Z,30.07
2018-06-27T14:37:36.220Z,30.12
2018-06-27T14:40:05.197Z,30.28
2018-06-27T14:42:33.506Z,30.36
2018-06-27T14:45:01.850Z,30.54
2018-06-27T14:47:29.662Z,30.67
2018-06-27T14:49:58.590Z,30.87
2018-06-27T14:52:26.344Z,31.04
2018-06-27T14:54:55.263Z,31.26
2018-06-27T14:57:23.003Z,31.45
2018-06-27T14:59:52.261Z,31.66
2018-06-27T15:02:20.763Z,31.79
2018-06-27T15:04:48.710Z,31.52
2018-06-27T15:07:17.561Z,30.94
2018-06-27T15:09:45.906Z,30.76
2018-06-27T15:12:14.225Z,30.72
2018-06-27T15:14:42.559Z,30.82
2018-06-27T15:17:10.898Z,31.08
2018-06-27T15:19:38.682Z,31.12
2018-06-27T15:22:07.904Z,31.04
2018-06-27T15:24:36.010Z,31.10
2018-06-27T15:27:04.405Z,31.26
2018-06-27T15:29:32.837Z,31.32
2018-06-27T15:32:01.325Z,31.33
2018-06-27T15:34:29.933Z,31.33
2018-06-27T15:36:58.234Z,31.39
2018-06-27T15:39:30.401Z,31.61
2018-06-27T15:41:58.810Z,31.85
2018-06-27T15:44:30.643Z,31.79
2018-06-27T15:46:59.685Z,32.07
2018-06-27T15:49:30.090Z,32.31
2018-06-27T15:51:59.328Z,32.50
2018-06-27T15:54:27.698Z,32.58
2018-06-27T15:56:56.610Z,32.57
2018-06-27T15:59:24.965Z,32.51
2018-06-27T16:01:53.608Z,32.64
2018-06-27T16:04:23.631Z,32.71
2018-06-27T16:06:52.374Z,32.72
2018-06-27T16:09:20.699Z,32.65
2018-06-27T16:11:49.107Z,32.71
2018-06-27T16:14:16.827Z,32.63
2018-06-27T16:16:45.987Z,32.69
2018-06-27T16:19:14.233Z,32.74
2018-06-27T16:21:42.848Z,32.60
2018-06-27T16:24:11.639Z,32.34
2018-06-27T16:26:40.026Z,32.40
2018-06-27T16:29:08.764Z,32.44
2018-06-27T16:31:37.530Z,32.49
2018-06-27T16:34:05.930Z,32.55
2018-06-27T16:36:34.203Z,32.62
2018-06-27T16:39:03.698Z,32.58
2018-06-27T16:41:32.037Z,32.60
2018-06-27T16:44:02.914Z,32.64
2018-06-27T16:46:31.097Z,32.40
2018-06-27T16:49:00.069Z,32.18
2018-06-27T16:51:28.487Z,31.74
2018-06-27T16:53:56.746Z,31.40
2018-06-27T16:56:24.539Z,31.22
2018-06-27T16:58:52.868Z,31.20
2018-06-27T17:01:21.507Z,31.30
2018-06-27T17:03:59.553Z,31.41
2018-06-27T17:06:18.625Z,31.38
2018-06-27T17:08:46.906Z,31.23
2018-06-27T17:11:14.946Z,30.80
2018-06-27T17:13:43.985Z,30.43
2018-06-27T17:16:12.295Z,30.03
2018-06-27T17:18:40.202Z,29.65
2018-06-27T17:21:08.400Z,29.20
2018-06-27T17:23:36.715Z,28.64
2018-06-27T17:26:05.876Z,28.19
2018-06-27T17:28:40.071Z,27.77
2018-06-27T17:31:04.150Z,27.31
2018-06-27T17:33:32.880Z,27.05
2018-06-27T17:36:03.159Z,26.87
2018-06-27T17:38:30.147Z,26.68
2018-06-27T17:40:59.053Z,26.65
2018-06-27T17:43:27.522Z,26.56
2018-06-27T17:45:55.823Z,26.46
2018-06-27T17:48:25.486Z,26.40
2018-06-27T17:51:05.139Z,26.30
2018-06-27T17:53:25.143Z,26.23
2018-06-27T17:55:53.361Z,26.07
2018-06-27T17:58:21.696Z,25.97
2018-06-27T18:00:50.155Z,25.89
2018-06-27T18:03:17.901Z,25.83
2018-06-27T18:05:47.207Z,25.78
2018-06-27T18:08:15.854Z,25.70
2018-06-27T18:10:45.606Z,25.62
2018-06-27T18:13:13.301Z,25.61
2018-06-27T18:15:42.205Z,25.57
2018-06-27T18:18:10.543Z,25.56
2018-06-27T18:20:38.921Z,25.56
2018-06-27T18:23:07.304Z,25.53
2018-06-27T18:25:35.585Z,25.39
2018-06-27T18:28:03.972Z,25.28
2018-06-27T18:30:33.120Z,25.22
2018-06-27T18:33:00.906Z,25.17
2018-06-27T18:35:29.226Z,25.13
2018-06-27T18:37:57.550Z,25.13
2018-06-27T18:40:26.453Z,25.15
2018-06-27T18:42:54.884Z,25.10
2018-06-27T18:45:23.707Z,25.03
2018-06-27T18:47:51.849Z,25.00
2018-06-27T18:50:20.169Z,24.86
2018-06-27T18:52:48.495Z,24.73
2018-06-27T18:55:16.824Z,24.68
2018-06-27T18:57:45.155Z,24.64
2018-06-27T19:00:13.495Z,24.62
2018-06-27T19:02:41.861Z,24.66
2018-06-27T19:05:10.184Z,24.67
2018-06-27T19:07:38.526Z,24.70
2018-06-27T19:10:06.314Z,24.70
2018-06-27T19:12:35.477Z,24.66
2018-06-27T19:15:03.562Z,24.66
2018-06-27T19:17:37.661Z,24.68
2018-06-27T19:20:06.034Z,24.63
2018-06-27T19:22:34.429Z,24.63
2018-06-27T19:25:03.623Z,24.59
2018-06-27T19:27:31.982Z,24.53
2018-06-27T19:30:00.336Z,24.43
2018-06-27T19:32:28.688Z,24.34
2018-06-27T19:34:57.075Z,24.21
2018-06-27T19:37:24.810Z,24.05
2018-06-27T19:39:53.710Z,23.98
2018-06-27T19:42:22.079Z,23.95
2018-06-27T19:44:51.639Z,23.91
2018-06-27T19:47:19.381Z,23.86
2018-06-27T19:49:48.691Z,23.84
2018-06-27T19:52:17.065Z,23.83
2018-06-27T19:54:45.403Z,23.80
2018-06-27T19:57:13.844Z,23.78
2018-06-27T19:59:42.216Z,23.69
2018-06-27T20:02:10.860Z,23.65
2018-06-27T20:04:39.143Z,23.63
2018-06-27T20:07:06.916Z,23.60
2018-06-27T20:09:35.540Z,23.55
2018-06-27T20:12:04.435Z,23.45
2018-06-27T20:14:32.803Z,23.39
2018-06-27T20:17:01.088Z,23.38
2018-06-27T20:19:28.832Z,23.35
2018-06-27T20:21:57.847Z,23.16
2018-06-27T20:24:26.140Z,22.70
2018-06-27T20:26:54.492Z,22.23
2018-06-27T20:29:22.286Z,21.80
2018-06-27T20:31:51.223Z,21.49
2018-06-27T20:34:19.584Z,21.28
2018-06-27T20:36:47.649Z,21.08
2018-06-27T20:39:17.079Z,20.95
2018-06-27T20:41:45.848Z,20.85
2018-06-27T20:44:14.300Z,20.69
2018-06-27T20:46:42.654Z,20.63
2018-06-27T20:49:11.738Z,20.58
2018-06-27T20:51:39.664Z,20.51
2018-06-27T20:54:10.514Z,20.44
2018-06-27T20:56:38.841Z,20.42
2018-06-27T20:59:10.111Z,20.42
2018-06-27T21:01:38.427Z,20.48
2018-06-27T21:04:06.760Z,20.52
2018-06-27T21:06:35.097Z,20.49
2018-06-27T21:09:06.178Z,20.42
2018-06-27T21:11:38.600Z,20.25
2018-06-27T21:16:54.098Z,20.15
2018-06-27T21:19:23.335Z,20.13
2018-06-27T21:21:51.162Z,20.10
2018-06-27T21:24:19.860Z,20.04
2018-06-27T21:26:49.062Z,20.00
2018-06-27T21:29:18.929Z,19.92
2018-06-27T21:31:48.573Z,19.79
2018-06-27T21:34:16.970Z,19.69
2018-06-27T21:36:45.543Z,19.68
2018-06-27T21:39:14.845Z,19.64
2018-06-27T21:41:44.451Z,19.63
2018-06-27T21:44:13.469Z,19.60
2018-06-27T21:46:42.320Z,19.54
2018-06-27T21:49:10.786Z,19.40
2018-06-27T21:51:39.675Z,19.32
2018-06-27T21:54:09.591Z,19.32
2018-06-27T21:56:40.473Z,19.31
2018-06-27T21:59:07.300Z,19.27
2018-06-27T22:01:35.906Z,19.22
2018-06-27T22:04:11.148Z,19.19
2018-06-27T22:06:42.450Z,19.11
2018-06-27T22:09:10.084Z,19.03
2018-06-27T22:11:37.711Z,19.02
2018-06-27T22:14:06.407Z,19.19
2018-06-27T22:16:35.020Z,19.41
2018-06-27T22:19:04.109Z,19.57
2018-06-27T22:21:32.127Z,19.65
2018-06-27T22:24:01.259Z,19.44
2018-06-27T22:26:29.639Z,19.23
2018-06-27T22:29:00.521Z,19.22
2018-06-27T22:31:28.952Z,19.20
2018-06-27T22:33:57.320Z,19.19
2018-06-27T22:36:25.073Z,19.17
2018-06-27T22:38:53.972Z,19.10
2018-06-27T22:41:22.298Z,19.06
2018-06-27T22:43:50.736Z,19.15
2018-06-27T22:46:19.126Z,19.18
2018-06-27T22:48:47.449Z,19.20
2018-06-27T22:51:15.181Z,19.10
2018-06-27T22:53:44.088Z,19.03
2018-06-27T22:56:12.451Z,18.99
2018-06-27T22:58:42.548Z,18.90
2018-06-27T23:01:10.420Z,18.76
2018-06-27T23:03:38.739Z,18.74
2018-06-27T23:06:07.059Z,18.69
2018-06-27T23:08:35.959Z,18.66
2018-06-27T23:11:04.394Z,18.69
2018-06-27T23:13:32.805Z,18.68
2018-06-27T23:16:01.220Z,18.61
2018-06-27T23:18:29.561Z,18.56
2018-06-27T23:20:57.297Z,18.50
2018-06-27T23:23:25.638Z,18.45
2018-06-27T23:25:53.961Z,18.40
2018-06-27T23:28:22.350Z,18.41
2018-06-27T23:30:51.444Z,18.47
2018-06-27T23:33:19.779Z,18.64
2018-06-27T23:35:48.101Z,18.77
2018-06-27T23:38:16.413Z,18.83
2018-06-27T23:40:44.190Z,18.82
2018-06-27T23:43:12.522Z,18.93
2018-06-27T23:45:40.842Z,18.90
2018-06-27T23:48:09.162Z,18.81
2018-06-27T23:50:38.061Z,18.69
2018-06-27T23:53:05.799Z,18.56
2018-06-27T23:55:34.702Z,18.57
2018-06-27T23:58:03.023Z,18.64
